createdAt,value
2018-11-25T00:03:59.666Z,12.99
2018-11-25T00:09:54.618Z,10.08
2018-11-25T00:15:49.632Z,11.69
2018-11-25T00:21:44.653Z,21.39
2018-11-25T00:27:39.642Z,10.01
2018-11-25T00:33:34.643Z,14.52
2018-11-25T00:39:29.645Z,20.18
2018-11-25T00:45:24.716Z,16.98
2018-11-25T00:51:19.648Z,18.04
2018-11-25T00:57:14.670Z,23.41
2018-11-25T01:03:09.665Z,16.89
2018-11-25T01:09:04.673Z,19.18
2018-11-25T01:14:59.674Z,13.64
2018-11-25T01:20:54.712Z,15.68
2018-11-25T01:26:49.690Z,15.52
2018-11-25T01:32:44.734Z,20.28
2018-11-25T01:38:39.711Z,29.6
2018-11-25T01:44:34.715Z,27.01
2018-11-25T01:50:29.796Z,30.6
2018-11-25T01:56:24.770Z,35.04
2018-11-25T02:02:19.749Z,32.53
2018-11-25T02:08:14.724Z,32.58
2018-11-25T02:14:09.750Z,33.98
2018-11-25T02:20:04.775Z,30.97
2018-11-25T02:25:59.746Z,33.33
2018-11-25T02:31:54.741Z,27.1
2018-11-25T02:37:49.774Z,21.53
2018-11-25T02:43:44.757Z,10.99
2018-11-25T02:49:39.759Z,7.88
2018-11-25T02:55:34.763Z,10.46
2018-11-25T03:01:29.765Z,4.72
2018-11-25T03:07:24.842Z,5.5
2018-11-25T03:13:19.778Z,5.31
2018-11-25T03:19:14.796Z,5.29
2018-11-25T03:25:09.811Z,7.35
2018-11-25T03:31:04.867Z,7.38
2018-11-25T03:36:59.834Z,4.13
2018-11-25T03:42:54.859Z,6.18
2018-11-25T03:48:49.801Z,3.62
2018-11-25T03:54:44.883Z,3.14
2018-11-25T04:00:39.825Z,5.39
2018-11-25T04:06:34.844Z,3.78
2018-11-25T04:12:29.866Z,6.87
2018-11-25T04:18:24.842Z,6
2018-11-25T04:24:19.839Z,3.09
2018-11-25T04:30:14.886Z,2.39
2018-11-25T04:36:09.867Z,4.66
2018-11-25T04:42:04.888Z,3.65
2018-11-25T04:47:59.926Z,7.84
2018-11-25T04:53:54.881Z,7.67
2018-11-25T04:59:49.872Z,5.02
2018-11-25T05:05:44.900Z,4.71
2018-11-25T05:11:39.917Z,10.18
2018-11-25T05:17:34.916Z,5.08
2018-11-25T05:23:29.896Z,5.18
2018-11-25T05:29:24.955Z,2.15
2018-11-25T05:35:19.944Z,2.73
2018-11-25T05:41:14.919Z,4.08
2018-11-25T05:47:09.918Z,4.49
2018-11-25T05:53:04.963Z,4.81
2018-11-25T05:58:59.944Z,3.59
2018-11-25T06:04:54.959Z,4.05
2018-11-25T06:10:49.924Z,3.03
2018-11-25T06:16:44.950Z,1.59
2018-11-25T06:22:39.955Z,1.53
2018-11-25T06:28:34.979Z,3.42
2018-11-25T06:34:29.972Z,3.77
2018-11-25T06:40:24.955Z,3.79
2018-11-25T06:46:19.965Z,3.68
2018-11-25T06:52:14.977Z,2.34
2018-11-25T06:58:09.959Z,2.48
2018-11-25T07:04:05.011Z,1.92
2018-11-25T07:09:59.985Z,3.2
2018-11-25T07:15:55.005Z,2.68
2018-11-25T07:21:50.046Z,10.17
2018-11-25T07:27:45.044Z,4.94
2018-11-25T07:33:40.051Z,2.15
2018-11-25T07:39:35.009Z,1.7
2018-11-25T07:45:30.868Z,1.68
2018-11-25T07:51:25.028Z,1.22
2018-11-25T07:57:20.030Z,3.11
2018-11-25T08:03:15.047Z,1.62
2018-11-25T08:09:10.068Z,2.03
2018-11-25T08:15:05.033Z,1.48
2018-11-25T08:21:00.056Z,1.63
2018-11-25T08:26:55.062Z,1.62
2018-11-25T08:32:50.094Z,3.05
2018-11-25T08:38:45.087Z,8.96
2018-11-25T08:44:40.070Z,2.5
2018-11-25T08:50:35.080Z,1.59
2018-11-25T08:56:30.102Z,2.38
2018-11-25T09:02:25.105Z,3.62
2018-11-25T09:08:20.089Z,1.69
2018-11-25T09:14:15.096Z,3.19
2018-11-25T09:20:10.090Z,12.76
2018-11-25T09:26:05.101Z,5.15
2018-11-25T09:32:00.115Z,1.7
2018-11-25T09:37:55.136Z,3.21
2018-11-25T09:43:50.128Z,1.93
2018-11-25T09:49:45.194Z,3.1
2018-11-25T09:55:40.188Z,3.08
2018-11-25T10:01:35.121Z,2.29
2018-11-25T10:07:30.130Z,1.94
2018-11-25T10:13:25.172Z,1.57
2018-11-25T10:19:20.172Z,5.67
2018-11-25T10:25:15.204Z,1.62
2018-11-25T10:31:10.150Z,2.79
2018-11-25T10:37:05.213Z,1.36
2018-11-25T10:43:00.235Z,2.74
2018-11-25T10:48:55.201Z,2.08
2018-11-25T10:54:50.187Z,3.6
2018-11-25T11:00:45.194Z,1.63
2018-11-25T11:06:40.194Z,3.34
2018-11-25T11:12:35.193Z,4.22
2018-11-25T11:18:30.212Z,3.35
2018-11-25T11:24:25.192Z,2.09
2018-11-25T11:30:20.265Z,4.56
2018-11-25T11:36:15.240Z,2.9
2018-11-25T11:42:10.211Z,3.55
2018-11-25T11:48:05.228Z,3.2
2018-11-25T11:54:00.263Z,4.6
2018-11-25T11:59:55.235Z,3.93
2018-11-25T12:05:50.237Z,7.69
2018-11-25T12:11:45.285Z,10.27
2018-11-25T12:17:40.258Z,6.8
2018-11-25T12:23:35.263Z,5.94
2018-11-25T12:29:30.265Z,4.36
2018-11-25T12:35:25.267Z,3.58
2018-11-25T12:41:20.282Z,4.1
2018-11-25T12:47:15.264Z,3.22
2018-11-25T12:53:10.296Z,2.86
2018-11-25T12:59:05.318Z,2.06
2018-11-25T13:05:00.298Z,2.3
2018-11-25T13:10:55.286Z,3.19
2018-11-25T13:16:50.292Z,1.96
2018-11-25T13:22:45.301Z,2.08
2018-11-25T13:28:40.301Z,10.53
2018-11-25T13:34:35.303Z,7.68
2018-11-25T13:40:30.327Z,1.57
2018-11-25T13:46:25.304Z,11.37
2018-11-25T13:52:20.328Z,10.4
2018-11-25T13:58:15.357Z,9.21
2018-11-25T14:04:10.324Z,13.88
2018-11-25T14:10:05.349Z,12.93
2018-11-25T14:16:00.363Z,15.76
2018-11-25T14:21:55.346Z,6.18
2018-11-25T14:27:50.372Z,5.37
2018-11-25T14:33:45.357Z,9.5
2018-11-25T14:39:40.362Z,6.85
2018-11-25T14:45:35.373Z,7.03
2018-11-25T14:51:30.365Z,8.13
2018-11-25T14:57:25.428Z,15.19
2018-11-25T15:03:20.396Z,7.73
2018-11-25T15:09:15.406Z,11.37
2018-11-25T15:15:10.428Z,13.66
2018-11-25T15:21:05.422Z,8.32
2018-11-25T15:27:00.465Z,7.27
2018-11-25T15:32:55.445Z,6.52
2018-11-25T15:38:50.417Z,8.03
2018-11-25T15:44:45.527Z,6.37
2018-11-25T15:50:40.447Z,9.48
2018-11-25T15:56:35.464Z,5.7
2018-11-25T16:02:30.439Z,4.37
2018-11-25T16:08:25.453Z,7.04
2018-11-25T16:14:20.457Z,4.23
2018-11-25T16:20:15.452Z,3.29
2018-11-25T16:26:10.477Z,5.15
2018-11-25T16:32:05.470Z,5.02
2018-11-25T16:38:00.483Z,4.88
2018-11-25T16:43:55.524Z,4.53
2018-11-25T16:49:50.526Z,10.91
2018-11-25T16:55:45.488Z,9.71
2018-11-25T17:01:40.492Z,9.13
2018-11-25T17:07:35.545Z,13.36
2018-11-25T17:13:30.513Z,16.73
2018-11-25T17:19:25.546Z,16.32
2018-11-25T17:25:20.516Z,14.62
2018-11-25T17:31:15.540Z,11.87
2018-11-25T17:37:10.530Z,7.57
2018-11-25T17:43:05.545Z,12.51
2018-11-25T17:49:00.533Z,8.05
2018-11-25T17:54:55.569Z,9.47
2018-11-25T18:00:50.611Z,13.69
2018-11-25T18:06:45.627Z,15.74
2018-11-25T18:12:41.402Z,10.9
2018-11-25T18:18:35.589Z,13.05
2018-11-25T18:24:30.585Z,14.68
2018-11-25T18:30:25.574Z,13.11
2018-11-25T18:36:20.627Z,13.41
2018-11-25T18:48:10.654Z,26.48
2018-11-25T18:48:10.659Z,26.48
2018-11-25T18:54:05.681Z,16.39
2018-11-25T19:00:00.627Z,17.94
2018-11-25T19:05:55.616Z,21
2018-11-25T19:11:50.626Z,17.79
2018-11-25T19:17:45.625Z,20.94
2018-11-25T19:23:40.645Z,15.22
2018-11-25T19:29:35.651Z,15.16
2018-11-25T19:35:30.631Z,17.15
2018-11-25T19:41:25.646Z,17.4
2018-11-25T19:47:20.799Z,17.12
2018-11-25T19:53:15.652Z,13.74
2018-11-25T19:59:10.658Z,22.03
2018-11-25T20:05:05.653Z,13.23
2018-11-25T20:11:00.671Z,12.04
2018-11-25T20:16:55.666Z,11.82
2018-11-25T20:22:50.685Z,13.61
2018-11-25T20:28:45.680Z,13.75
2018-11-25T20:34:40.678Z,16.72
2018-11-25T20:40:35.682Z,13.75
2018-11-25T20:46:30.701Z,15.42
2018-11-25T20:52:25.681Z,17.11
2018-11-25T20:58:20.730Z,18.82
2018-11-25T21:04:15.701Z,23.2
2018-11-25T21:10:10.752Z,22.6
2018-11-25T21:16:05.739Z,15.92
2018-11-25T21:22:00.708Z,17.11
2018-11-25T21:27:55.740Z,18.82
2018-11-25T21:33:50.724Z,16.97
2018-11-25T21:39:45.716Z,20.91
2018-11-25T21:45:40.748Z,17.04
2018-11-25T21:51:35.754Z,17.49
2018-11-25T21:57:30.743Z,14.53
2018-11-25T22:03:25.760Z,20.01
2018-11-25T22:09:20.794Z,17.21
2018-11-25T22:15:15.786Z,17.35
2018-11-25T22:21:10.746Z,15.55
2018-11-25T22:27:05.779Z,14.49
2018-11-25T22:33:00.798Z,11.69
2018-11-25T22:38:55.761Z,14.35
2018-11-25T22:44:50.788Z,13.57
2018-11-25T22:50:45.852Z,10.72
2018-11-25T22:56:40.823Z,13.24
2018-11-25T23:02:35.814Z,13.69
2018-11-25T23:08:30.832Z,12.3
2018-11-25T23:14:25.835Z,11.37
2018-11-25T23:20:20.860Z,14.83
2018-11-25T23:26:15.836Z,12.56
2018-11-25T23:32:10.835Z,9.32
2018-11-25T23:38:05.841Z,10.33
2018-11-25T23:44:00.831Z,14.01
2018-11-25T23:49:55.838Z,8.64
2018-11-25T23:55:50.852Z,10.95
